Terminal Aerodrome Forecast
Issued by NWS

Home | Current Version | Previous Version | Text Only | Print | Product List | Glossary On
Versions: 1 2 3 4 5 6 7 8 9 10 11 12 13 14 15 16
000
FTUS44 KOUN 291739
TAFHBR
TAF
KHBR 291739Z 2918/3018 16010KT P6SM SCT050
      TEMPO 3001/3005 3SM -TSRA BR BKN030CB
     FM300500 14010KT P6SM SCT015 BKN250
      TEMPO 3011/3015 OVC015=

USA.gov is the U.S. government's official web portal to all federal, state and local government web resources and services.